sensor_id;sensor_type;location;lat;lon;timestamp;pressure;altitude;pressure_sealevel;temperature;humidity
46714;BME280;32445;51.376;10.874;2024-01-11T00:02:58;100933.00;;;-8.08;54.49
46714;BME280;32445;51.376;10.874;2024-01-11T00:07:59;100920.03;;;-8.12;54.51
46714;BME280;32445;51.376;10.874;2024-01-11T00:12:59;100928.28;;;-8.15;54.47
46714;BME280;32445;51.376;10.874;2024-01-11T00:17:59;100916.22;;;-8.19;54.47
46714;BME280;32445;51.376;10.874;2024-01-11T00:23:02;100917.75;;;-8.21;54.58
46714;BME280;32445;51.376;10.874;2024-01-11T00:28:03;100906.47;;;-8.26;54.43
46714;BME280;32445;51.376;10.874;2024-01-11T00:33:03;100896.94;;;-8.30;54.52
46714;BME280;32445;51.376;10.874;2024-01-11T00:38:03;100890.03;;;-8.33;54.51
46714;BME280;32445;51.376;10.874;2024-01-11T00:43:04;100884.66;;;-8.38;54.51
46714;BME280;32445;51.376;10.874;2024-01-11T00:48:04;100890.34;;;-8.40;54.34
46714;BME280;32445;51.376;10.874;2024-01-11T00:53:05;100884.94;;;-8.46;54.48
46714;BME280;32445;51.376;10.874;2024-01-11T00:58:05;100883.91;;;-8.48;54.49
46714;BME280;32445;51.376;10.874;2024-01-11T01:03:05;100876.91;;;-8.53;54.34
46714;BME280;32445;51.376;10.874;2024-01-11T01:08:06;100874.16;;;-8.56;54.51
46714;BME280;32445;51.376;10.874;2024-01-11T01:13:06;100873.09;;;-8.59;54.37
46714;BME280;32445;51.376;10.874;2024-01-11T01:18:07;100866.94;;;-8.63;54.46
46714;BME280;32445;51.376;10.874;2024-01-11T01:23:07;100866.81;;;-8.64;54.38
46714;BME280;32445;51.376;10.874;2024-01-11T01:28:08;100869.78;;;-8.70;54.18
46714;BME280;32445;51.376;10.874;2024-01-11T01:33:08;100864.53;;;-8.73;54.52
46714;BME280;32445;51.376;10.874;2024-01-11T01:38:08;100871.09;;;-8.75;54.33
46714;BME280;32445;51.376;10.874;2024-01-11T01:43:09;100865.69;;;-8.80;54.31
46714;BME280;32445;51.376;10.874;2024-01-11T01:48:10;100883.22;;;-8.81;54.51
46714;BME280;32445;51.376;10.874;2024-01-11T01:53:10;100882.25;;;-8.83;54.51
46714;BME280;32445;51.376;10.874;2024-01-11T01:58:12;100866.91;;;-8.87;54.48
46714;BME280;32445;51.376;10.874;2024-01-11T02:03:14;100859.25;;;-8.88;54.51
46714;BME280;32445;51.376;10.874;2024-01-11T02:08:16;100854.13;;;-8.90;54.41
46714;BME280;32445;51.376;10.874;2024-01-11T02:13:18;100855.72;;;-8.90;54.44
46714;BME280;32445;51.376;10.874;2024-01-11T02:18:19;100856.28;;;-8.94;54.48
46714;BME280;32445;51.376;10.874;2024-01-11T02:23:21;100868.09;;;-8.93;54.42
46714;BME280;32445;51.376;10.874;2024-01-11T02:28:21;100874.66;;;-8.95;54.38
46714;BME280;32445;51.376;10.874;2024-01-11T02:33:22;100876.94;;;-8.98;54.41
46714;BME280;32445;51.376;10.874;2024-01-11T02:38:22;100871.03;;;-8.99;54.37
46714;BME280;32445;51.376;10.874;2024-01-11T02:43:23;100881.97;;;-8.98;54.15
46714;BME280;32445;51.376;10.874;2024-01-11T02:48:43;100867.53;;;-9.01;54.20
46714;BME280;32445;51.376;10.874;2024-01-11T02:53:43;100874.09;;;-9.03;54.16
46714;BME280;32445;51.376;10.874;2024-01-11T02:58:44;100870.06;;;-9.01;54.16
46714;BME280;32445;51.376;10.874;2024-01-11T03:03:44;100861.50;;;-9.03;54.07
46714;BME280;32445;51.376;10.874;2024-01-11T03:08:44;100873.09;;;-9.05;54.08
46714;BME280;32445;51.376;10.874;2024-01-11T03:13:45;100874.38;;;-9.10;54.23
46714;BME280;32445;51.376;10.874;2024-01-11T03:18:45;100874.28;;;-9.12;54.22
46714;BME280;32445;51.376;10.874;2024-01-11T03:23:45;100867.38;;;-9.14;54.10
46714;BME280;32445;51.376;10.874;2024-01-11T03:28:46;100879.94;;;-9.14;54.26
46714;BME280;32445;51.376;10.874;2024-01-11T03:33:46;100874.91;;;-9.14;54.19
46714;BME280;32445;51.376;10.874;2024-01-11T03:38:46;100878.06;;;-9.17;54.07
46714;BME280;32445;51.376;10.874;2024-01-11T03:43:47;100856.97;;;-9.19;54.23
46714;BME280;32445;51.376;10.874;2024-01-11T03:48:47;100842.63;;;-9.20;54.12
46714;BME280;32445;51.376;10.874;2024-01-11T03:53:48;100847.56;;;-9.22;54.07
46714;BME280;32445;51.376;10.874;2024-01-11T03:58:48;100838.28;;;-9.23;54.16
46714;BME280;32445;51.376;10.874;2024-01-11T04:03:49;100844.06;;;-9.24;54.10
46714;BME280;32445;51.376;10.874;2024-01-11T04:08:50;100835.50;;;-9.26;54.07
46714;BME280;32445;51.376;10.874;2024-01-11T04:13:50;100820.69;;;-9.23;54.16
46714;BME280;32445;51.376;10.874;2024-01-11T04:18:51;100824.69;;;-9.25;54.01
46714;BME280;32445;51.376;10.874;2024-01-11T04:23:51;100847.34;;;-9.25;54.13
46714;BME280;32445;51.376;10.874;2024-01-11T04:28:52;100856.63;;;-9.24;53.91
46714;BME280;32445;51.376;10.874;2024-01-11T04:33:53;100865.81;;;-9.24;53.94
46714;BME280;32445;51.376;10.874;2024-01-11T04:38:53;100883.19;;;-9.27;53.94
46714;BME280;32445;51.376;10.874;2024-01-11T04:43:54;100882.53;;;-9.25;54.04
46714;BME280;32445;51.376;10.874;2024-01-11T04:48:54;100900.25;;;-9.23;54.07
46714;BME280;32445;51.376;10.874;2024-01-11T04:53:54;100907.06;;;-9.22;53.99
46714;BME280;32445;51.376;10.874;2024-01-11T04:58:55;100902.03;;;-9.22;53.89
46714;BME280;32445;51.376;10.874;2024-01-11T05:03:55;100913.97;;;-9.19;54.00
46714;BME280;32445;51.376;10.874;2024-01-11T05:08:55;100916.59;;;-9.18;53.98
46714;BME280;32445;51.376;10.874;2024-01-11T05:13:56;100916.47;;;-9.19;54.04
46714;BME280;32445;51.376;10.874;2024-01-11T05:18:57;100910.44;;;-9.22;53.92
46714;BME280;32445;51.376;10.874;2024-01-11T05:23:57;100901.91;;;-9.24;53.96
46714;BME280;32445;51.376;10.874;2024-01-11T05:28:58;100884.31;;;-9.24;53.98
46714;BME280;32445;51.376;10.874;2024-01-11T05:33:58;100855.75;;;-9.24;54.07
46714;BME280;32445;51.376;10.874;2024-01-11T05:38:59;100838.03;;;-9.26;53.92
46714;BME280;32445;51.376;10.874;2024-01-11T05:43:59;100858.25;;;-9.24;53.90
46714;BME280;32445;51.376;10.874;2024-01-11T05:48:59;100855.63;;;-9.26;53.91
46714;BME280;32445;51.376;10.874;2024-01-11T05:54:00;100880.25;;;-9.22;54.03
46714;BME280;32445;51.376;10.874;2024-01-11T05:59:00;100901.28;;;-9.21;53.84
46714;BME280;32445;51.376;10.874;2024-01-11T06:04:00;100909.22;;;-9.27;53.98
46714;BME280;32445;51.376;10.874;2024-01-11T06:09:01;100892.59;;;-9.25;53.95
46714;BME280;32445;51.376;10.874;2024-01-11T06:14:04;100886.81;;;-9.24;54.04
46714;BME280;32445;51.376;10.874;2024-01-11T06:19:04;100894.72;;;-9.19;53.82
46714;BME280;32445;51.376;10.874;2024-01-11T06:24:07;100898.97;;;-9.18;53.66
46714;BME280;32445;51.376;10.874;2024-01-11T06:29:10;100901.63;;;-9.16;53.96
46714;BME280;32445;51.376;10.874;2024-01-11T06:34:13;100927.50;;;-9.17;53.89
46714;BME280;32445;51.376;10.874;2024-01-11T06:39:13;100926.53;;;-9.19;53.90
46714;BME280;32445;51.376;10.874;2024-01-11T06:44:13;100910.44;;;-9.22;53.99
46714;BME280;32445;51.376;10.874;2024-01-11T06:49:14;100907.16;;;-9.20;53.84
46714;BME280;32445;51.376;10.874;2024-01-11T06:54:14;100904.75;;;-9.19;53.90
46714;BME280;32445;51.376;10.874;2024-01-11T06:59:15;100900.50;;;-9.20;53.74
46714;BME280;32445;51.376;10.874;2024-01-11T07:04:15;100888.69;;;-9.21;53.74
46714;BME280;32445;51.376;10.874;2024-01-11T07:09:15;100891.31;;;-9.19;53.74
46714;BME280;32445;51.376;10.874;2024-01-11T07:14:17;100896.47;;;-9.18;54.04
46714;BME280;32445;51.376;10.874;2024-01-11T07:19:17;100890.91;;;-9.14;53.78
46714;BME280;32445;51.376;10.874;2024-01-11T07:24:18;100894.50;;;-9.10;53.79
46714;BME280;32445;51.376;10.874;2024-01-11T07:29:18;100907.09;;;-9.10;53.68
46714;BME280;32445;51.376;10.874;2024-01-11T07:34:19;100886.00;;;-9.12;53.86
46714;BME280;32445;51.376;10.874;2024-01-11T07:39:19;100896.50;;;-9.06;53.65
46714;BME280;32445;51.376;10.874;2024-01-11T07:44:20;100888.19;;;-9.05;53.58
46714;BME280;32445;51.376;10.874;2024-01-11T07:49:20;100898.81;;;-8.97;53.58
46714;BME280;32445;51.376;10.874;2024-01-11T07:54:21;100889.09;;;-8.93;53.66
46714;BME280;32445;51.376;10.874;2024-01-11T07:59:21;100896.34;;;-8.85;53.57
46714;BME280;32445;51.376;10.874;2024-01-11T08:04:21;100892.31;;;-8.83;53.42
46714;BME280;32445;51.376;10.874;2024-01-11T08:09:22;100898.44;;;-8.80;53.52
46714;BME280;32445;51.376;10.874;2024-01-11T08:14:23;100898.66;;;-8.77;53.48
46714;BME280;32445;51.376;10.874;2024-01-11T08:19:24;100882.56;;;-8.79;53.38
46714;BME280;32445;51.376;10.874;2024-01-11T08:24:24;100900.19;;;-8.79;53.36
46714;BME280;32445;51.376;10.874;2024-01-11T08:29:25;100877.97;;;-8.84;53.80
46714;BME280;32445;51.376;10.874;2024-01-11T08:34:25;100876.97;;;-8.87;53.80
46714;BME280;32445;51.376;10.874;2024-01-11T08:39:26;100900.50;;;-8.74;53.69
46714;BME280;32445;51.376;10.874;2024-01-11T08:44:26;100907.63;;;-8.80;53.97
46714;BME280;32445;51.376;10.874;2024-01-11T08:49:27;100893.75;;;-8.75;53.96
46714;BME280;32445;51.376;10.874;2024-01-11T08:54:27;100897.56;;;-8.68;54.22
46714;BME280;32445;51.376;10.874;2024-01-11T08:59:30;100890.06;;;-8.57;54.04
46714;BME280;32445;51.376;10.874;2024-01-11T09:04:30;100905.38;;;-8.54;54.17
46714;BME280;32445;51.376;10.874;2024-01-11T09:09:31;100902.19;;;-8.39;54.04
46714;BME280;32445;51.376;10.874;2024-01-11T09:14:32;100888.16;;;-8.36;54.07
46714;BME280;32445;51.376;10.874;2024-01-11T09:19:35;100872.50;;;-8.31;54.32
46714;BME280;32445;51.376;10.874;2024-01-11T09:24:37;100875.81;;;-8.21;54.16
46714;BME280;32445;51.376;10.874;2024-01-11T09:29:45;100879.19;;;-8.08;53.90
46714;BME280;32445;51.376;10.874;2024-01-11T09:34:46;100882.56;;;-7.96;54.06
46714;BME280;32445;51.376;10.874;2024-01-11T09:39:46;100874.88;;;-7.86;54.05
46714;BME280;32445;51.376;10.874;2024-01-11T09:44:47;100888.25;;;-7.75;54.24
46714;BME280;32445;51.376;10.874;2024-01-11T09:49:48;100916.25;;;-7.58;54.09
46714;BME280;32445;51.376;10.874;2024-01-11T09:54:51;100905.38;;;-7.45;54.07
46714;BME280;32445;51.376;10.874;2024-01-11T09:59:54;100906.44;;;-7.30;54.36
46714;BME280;32445;51.376;10.874;2024-01-11T10:04:55;100917.56;;;-7.15;53.86
46714;BME280;32445;51.376;10.874;2024-01-11T10:09:56;100910.88;;;-6.89;53.92
46714;BME280;32445;51.376;10.874;2024-01-11T10:15:05;100897.50;;;-6.61;53.55
46714;BME280;32445;51.376;10.874;2024-01-11T10:20:13;100886.56;;;-6.35;53.43
46714;BME280;32445;51.376;10.874;2024-01-11T10:25:17;100876.06;;;-6.01;52.96
46714;BME280;32445;51.376;10.874;2024-01-11T10:30:18;100850.13;;;-5.70;53.32
46714;BME280;32445;51.376;10.874;2024-01-11T10:35:20;100841.56;;;-5.44;54.49
46714;BME280;32445;51.376;10.874;2024-01-11T10:40:21;100836.31;;;-5.18;54.00
46714;BME280;32445;51.376;10.874;2024-01-11T10:45:25;100840.34;;;-4.92;54.39
46714;BME280;32445;51.376;10.874;2024-01-11T10:50:26;100839.28;;;-4.66;53.74
46714;BME280;32445;51.376;10.874;2024-01-11T10:55:34;100832.34;;;-4.39;54.21
46714;BME280;32445;51.376;10.874;2024-01-11T11:00:35;100819.44;;;-4.12;54.02
46714;BME280;32445;51.376;10.874;2024-01-11T11:05:35;100807.38;;;-3.85;53.81
46714;BME280;32445;51.376;10.874;2024-01-11T11:10:38;100798.75;;;-3.55;53.57
46714;BME280;32445;51.376;10.874;2024-01-11T11:15:47;100796.09;;;-3.24;53.47
46714;BME280;32445;51.376;10.874;2024-01-11T11:20:48;100810.25;;;-2.94;53.77
46714;BME280;32445;51.376;10.874;2024-01-11T11:25:53;100795.69;;;-2.63;54.18
46714;BME280;32445;51.376;10.874;2024-01-11T11:30:54;100780.53;;;-2.43;54.62
46714;BME280;32445;51.376;10.874;2024-01-11T11:35:57;100770.53;;;-2.20;54.48
46714;BME280;32445;51.376;10.874;2024-01-11T11:40:59;100764.00;;;-1.96;54.82
46714;BME280;32445;51.376;10.874;2024-01-11T11:46:00;100775.63;;;-1.83;54.71
46714;BME280;32445;51.376;10.874;2024-01-11T11:51:08;100772.41;;;-1.79;54.70
46714;BME280;32445;51.376;10.874;2024-01-11T11:56:09;100778.44;;;-1.57;54.96
46714;BME280;32445;51.376;10.874;2024-01-11T12:01:11;100785.91;;;-1.41;55.12
46714;BME280;32445;51.376;10.874;2024-01-11T12:06:11;100796.81;;;-1.24;55.10
46714;BME280;32445;51.376;10.874;2024-01-11T12:11:19;100796.19;;;-0.98;55.43
46714;BME280;32445;51.376;10.874;2024-01-11T12:16:20;100767.31;;;-0.76;55.29
46714;BME280;32445;51.376;10.874;2024-01-11T12:21:20;100737.78;;;-0.50;55.79
46714;BME280;32445;51.376;10.874;2024-01-11T12:26:21;100731.94;;;-0.23;56.49
46714;BME280;32445;51.376;10.874;2024-01-11T12:31:22;100725.28;;;0.03;56.10
46714;BME280;32445;51.376;10.874;2024-01-11T12:36:23;100696.50;;;0.07;55.54
46714;BME280;32445;51.376;10.874;2024-01-11T12:41:24;100683.34;;;0.21;55.72
46714;BME280;32445;51.376;10.874;2024-01-11T12:46:27;100684.91;;;0.43;56.39
46714;BME280;32445;51.376;10.874;2024-01-11T12:51:27;100688.88;;;0.33;55.72
46714;BME280;32445;51.376;10.874;2024-01-11T12:56:27;100698.50;;;0.40;56.78
46714;BME280;32445;51.376;10.874;2024-01-11T13:01:28;100703.47;;;0.63;56.80
46714;BME280;32445;51.376;10.874;2024-01-11T13:06:32;100691.22;;;0.78;56.34
46714;BME280;32445;51.376;10.874;2024-01-11T13:11:34;100690.63;;;0.87;56.00
46714;BME280;32445;51.376;10.874;2024-01-11T13:16:35;100677.59;;;1.05;56.47
46714;BME280;32445;51.376;10.874;2024-01-11T13:21:35;100675.81;;;1.31;56.43
46714;BME280;32445;51.376;10.874;2024-01-11T13:26:36;100683.28;;;1.52;56.23
46714;BME280;32445;51.376;10.874;2024-01-11T13:31:37;100689.94;;;1.47;56.35
46714;BME280;32445;51.376;10.874;2024-01-11T13:36:37;100696.88;;;1.51;56.04
46714;BME280;32445;51.376;10.874;2024-01-11T13:41:37;100704.31;;;1.42;55.60
46714;BME280;32445;51.376;10.874;2024-01-11T13:46:40;100707.19;;;1.26;55.38
46714;BME280;32445;51.376;10.874;2024-01-11T13:51:41;100709.81;;;1.27;55.86
46714;BME280;32445;51.376;10.874;2024-01-11T13:56:43;100726.81;;;1.54;55.92
46714;BME280;32445;51.376;10.874;2024-01-11T14:01:44;100727.16;;;1.65;56.02
46714;BME280;32445;51.376;10.874;2024-01-11T14:06:44;100738.56;;;1.47;55.79
46714;BME280;32445;51.376;10.874;2024-01-11T14:11:44;100735.91;;;1.17;56.03
46714;BME280;32445;51.376;10.874;2024-01-11T14:16:45;100738.91;;;1.03;55.93
46714;BME280;32445;51.376;10.874;2024-01-11T14:21:45;100744.78;;;1.01;56.46
46714;BME280;32445;51.376;10.874;2024-01-11T14:26:46;100747.09;;;0.67;54.92
46714;BME280;32445;51.376;10.874;2024-01-11T14:31:46;100743.41;;;0.59;55.39
46714;BME280;32445;51.376;10.874;2024-01-11T14:36:47;100741.06;;;0.41;55.15
46714;BME280;32445;51.376;10.874;2024-01-11T14:41:47;100742.06;;;0.45;56.13
46714;BME280;32445;51.376;10.874;2024-01-11T14:46:47;100764.22;;;0.46;56.22
46714;BME280;32445;51.376;10.874;2024-01-11T14:51:48;100758.00;;;0.38;56.28
46714;BME280;32445;51.376;10.874;2024-01-11T14:56:48;100767.66;;;0.46;56.53
46714;BME280;32445;51.376;10.874;2024-01-11T15:01:49;100767.66;;;0.46;56.36
46714;BME280;32445;51.376;10.874;2024-01-11T15:06:49;100769.06;;;0.38;56.61
46714;BME280;32445;51.376;10.874;2024-01-11T15:11:49;100768.31;;;0.65;56.69
46714;BME280;32445;51.376;10.874;2024-01-11T15:16:50;100777.53;;;0.61;56.42
46714;BME280;32445;51.376;10.874;2024-01-11T15:21:51;100786.41;;;0.47;56.83
46714;BME280;32445;51.376;10.874;2024-01-11T15:26:51;100789.94;;;0.50;56.75
46714;BME280;32445;51.376;10.874;2024-01-11T15:31:52;100785.06;;;0.57;56.55
46714;BME280;32445;51.376;10.874;2024-01-11T15:36:52;100820.22;;;0.64;56.48
46714;BME280;32445;51.376;10.874;2024-01-11T15:41:54;100813.41;;;0.64;56.23
46714;BME280;32445;51.376;10.874;2024-01-11T15:46:56;100804.84;;;0.62;56.14
46714;BME280;32445;51.376;10.874;2024-01-11T15:51:56;100808.91;;;0.57;56.00
46714;BME280;32445;51.376;10.874;2024-01-11T15:56:56;100804.44;;;0.51;56.08
46714;BME280;32445;51.376;10.874;2024-01-11T16:01:58;100790.72;;;0.48;55.88
46714;BME280;32445;51.376;10.874;2024-01-11T16:07:01;100775.28;;;0.45;55.94
46714;BME280;32445;51.376;10.874;2024-01-11T16:12:01;100773.38;;;0.39;55.85
46714;BME280;32445;51.376;10.874;2024-01-11T16:17:02;100776.56;;;0.33;55.92
46714;BME280;32445;51.376;10.874;2024-01-11T16:22:03;100790.69;;;0.24;55.83
46714;BME280;32445;51.376;10.874;2024-01-11T16:27:03;100797.19;;;0.15;55.54
46714;BME280;32445;51.376;10.874;2024-01-11T16:32:07;100790.13;;;0.08;55.69
46714;BME280;32445;51.376;10.874;2024-01-11T16:37:07;100783.94;;;0.02;55.52
46714;BME280;32445;51.376;10.874;2024-01-11T16:42:08;100779.59;;;-0.01;55.57
46714;BME280;32445;51.376;10.874;2024-01-11T16:47:10;100786.28;;;-0.03;55.82
46714;BME280;32445;51.376;10.874;2024-01-11T16:52:10;100790.50;;;-0.05;55.63
46714;BME280;32445;51.376;10.874;2024-01-11T16:57:11;100783.53;;;-0.09;55.63
46714;BME280;32445;51.376;10.874;2024-01-11T17:02:11;100772.41;;;-0.11;55.41
46714;BME280;32445;51.376;10.874;2024-01-11T17:07:11;100768.91;;;-0.13;55.47
46714;BME280;32445;51.376;10.874;2024-01-11T17:12:12;100780.69;;;-0.17;55.54
46714;BME280;32445;51.376;10.874;2024-01-11T17:17:12;100801.81;;;-0.21;55.35
46714;BME280;32445;51.376;10.874;2024-01-11T17:22:13;100810.88;;;-0.28;55.52
46714;BME280;32445;51.376;10.874;2024-01-11T17:27:13;100801.38;;;-0.32;55.42
46714;BME280;32445;51.376;10.874;2024-01-11T17:32:14;100808.84;;;-0.37;55.55
46714;BME280;32445;51.376;10.874;2024-01-11T17:37:15;100818.06;;;-0.40;55.34
46714;BME280;32445;51.376;10.874;2024-01-11T17:42:18;100835.00;;;-0.42;55.32
46714;BME280;32445;51.376;10.874;2024-01-11T17:47:18;100839.25;;;-0.43;55.56
46714;BME280;32445;51.376;10.874;2024-01-11T17:52:19;100837.44;;;-0.45;55.58
46714;BME280;32445;51.376;10.874;2024-01-11T17:57:22;100836.41;;;-0.49;55.45
46714;BME280;32445;51.376;10.874;2024-01-11T18:02:22;100827.72;;;-0.54;55.49
46714;BME280;32445;51.376;10.874;2024-01-11T18:07:23;100822.34;;;-0.60;55.33
46714;BME280;32445;51.376;10.874;2024-01-11T18:12:25;100839.13;;;-0.67;55.51
46714;BME280;32445;51.376;10.874;2024-01-11T18:17:27;100827.03;;;-0.71;55.29
46714;BME280;32445;51.376;10.874;2024-01-11T18:22:28;100818.31;;;-0.76;55.50
46714;BME280;32445;51.376;10.874;2024-01-11T18:27:28;100821.69;;;-0.77;55.34
46714;BME280;32445;51.376;10.874;2024-01-11T18:32:31;100831.97;;;-0.76;55.23
46714;BME280;32445;51.376;10.874;2024-01-11T18:37:31;100832.03;;;-0.74;55.16
46714;BME280;32445;51.376;10.874;2024-01-11T18:42:31;100827.84;;;-0.72;55.24
46714;BME280;32445;51.376;10.874;2024-01-11T18:47:32;100816.78;;;-0.73;55.13
46714;BME280;32445;51.376;10.874;2024-01-11T18:52:32;100821.19;;;-0.68;55.09
46714;BME280;32445;51.376;10.874;2024-01-11T18:57:32;100814.47;;;-0.66;55.18
46714;BME280;32445;51.376;10.874;2024-01-11T19:02:33;100811.75;;;-0.71;55.22
46714;BME280;32445;51.376;10.874;2024-01-11T19:07:33;100818.78;;;-0.65;54.95
46714;BME280;32445;51.376;10.874;2024-01-11T19:12:33;100827.34;;;-0.63;54.98
46714;BME280;32445;51.376;10.874;2024-01-11T19:17:34;100828.41;;;-0.58;55.08
46714;BME280;32445;51.376;10.874;2024-01-11T19:22:34;100832.38;;;-0.65;55.00
46714;BME280;32445;51.376;10.874;2024-01-11T19:27:35;100841.78;;;-0.64;55.28
46714;BME280;32445;51.376;10.874;2024-01-11T19:32:35;100847.00;;;-0.61;55.12
46714;BME280;32445;51.376;10.874;2024-01-11T19:37:38;100853.06;;;-0.59;55.20
46714;BME280;32445;51.376;10.874;2024-01-11T19:42:40;100850.63;;;-0.56;55.07
46714;BME280;32445;51.376;10.874;2024-01-11T19:47:41;100856.59;;;-0.55;55.23
46714;BME280;32445;51.376;10.874;2024-01-11T19:52:41;100862.75;;;-0.50;55.02
46714;BME280;32445;51.376;10.874;2024-01-11T19:57:41;100875.81;;;-0.42;54.94
46714;BME280;32445;51.376;10.874;2024-01-11T20:02:42;100875.94;;;-0.39;54.90
46714;BME280;32445;51.376;10.874;2024-01-11T20:07:42;100869.41;;;-0.32;54.96
46714;BME280;32445;51.376;10.874;2024-01-11T20:12:43;100883.19;;;-0.27;54.95
46714;BME280;32445;51.376;10.874;2024-01-11T20:17:44;100896.91;;;-0.25;54.79
46714;BME280;32445;51.376;10.874;2024-01-11T20:22:44;100907.22;;;-0.22;54.86
46714;BME280;32445;51.376;10.874;2024-01-11T20:27:45;100896.22;;;-0.21;54.79
46714;BME280;32445;51.376;10.874;2024-01-11T20:32:46;100894.59;;;-0.19;54.96
46714;BME280;32445;51.376;10.874;2024-01-11T20:37:46;100894.72;;;-0.16;54.80
46714;BME280;32445;51.376;10.874;2024-01-11T20:42:47;100892.31;;;-0.13;54.81
46714;BME280;32445;51.376;10.874;2024-01-11T20:47:47;100886.38;;;-0.12;54.81
46714;BME280;32445;51.376;10.874;2024-01-11T20:52:47;100886.53;;;-0.07;54.85
46714;BME280;32445;51.376;10.874;2024-01-11T20:57:48;100894.28;;;-0.06;54.75
46714;BME280;32445;51.376;10.874;2024-01-11T21:02:48;100886.81;;;-0.01;54.76
46714;BME280;32445;51.376;10.874;2024-01-11T21:07:50;100886.84;;;0.01;54.77
46714;BME280;32445;51.376;10.874;2024-01-11T21:12:51;100878.47;;;0.03;54.77
46714;BME280;32445;51.376;10.874;2024-01-11T21:17:51;100882.72;;;0.04;54.82
46714;BME280;32445;51.376;10.874;2024-01-11T21:22:52;100888.59;;;0.02;55.11
46714;BME280;32445;51.376;10.874;2024-01-11T21:27:52;100896.00;;;-0.05;55.36
46714;BME280;32445;51.376;10.874;2024-01-11T21:32:52;100882.50;;;-0.02;55.27
46714;BME280;32445;51.376;10.874;2024-01-11T21:37:53;100885.44;;;0.07;55.02
46714;BME280;32445;51.376;10.874;2024-01-11T21:42:54;100879.66;;;0.13;55.15
46714;BME280;32445;51.376;10.874;2024-01-11T21:47:54;100891.72;;;0.17;54.96
46714;BME280;32445;51.376;10.874;2024-01-11T21:52:54;100885.88;;;0.20;55.04
46714;BME280;32445;51.376;10.874;2024-01-11T21:57:55;100893.59;;;0.21;54.80
46714;BME280;32445;51.376;10.874;2024-01-11T22:02:55;100899.66;;;0.23;55.11
46714;BME280;32445;51.376;10.874;2024-01-11T22:07:56;100887.84;;;0.27;54.90
46714;BME280;32445;51.376;10.874;2024-01-11T22:12:56;100886.28;;;0.30;54.83
46714;BME280;32445;51.376;10.874;2024-01-11T22:17:56;100887.22;;;0.32;55.02
46714;BME280;32445;51.376;10.874;2024-01-11T22:23:00;100887.16;;;0.31;54.80
46714;BME280;32445;51.376;10.874;2024-01-11T22:28:01;100886.47;;;0.35;55.02
46714;BME280;32445;51.376;10.874;2024-01-11T22:33:01;100882.31;;;0.39;54.83
46714;BME280;32445;51.376;10.874;2024-01-11T22:38:02;100892.47;;;0.37;55.14
46714;BME280;32445;51.376;10.874;2024-01-11T22:43:02;100888.38;;;0.41;54.97
46714;BME280;32445;51.376;10.874;2024-01-11T22:48:03;100887.56;;;0.42;55.12
46714;BME280;32445;51.376;10.874;2024-01-11T22:53:04;100885.13;;;0.45;54.88
46714;BME280;32445;51.376;10.874;2024-01-11T22:58:04;100880.13;;;0.48;55.05
46714;BME280;32445;51.376;10.874;2024-01-11T23:03:05;100880.97;;;0.48;55.07
46714;BME280;32445;51.376;10.874;2024-01-11T23:08:05;100885.34;;;0.51;54.96
46714;BME280;32445;51.376;10.874;2024-01-11T23:13:06;100879.38;;;0.50;54.87
46714;BME280;32445;51.376;10.874;2024-01-11T23:18:06;100887.94;;;0.52;55.10
46714;BME280;32445;51.376;10.874;2024-01-11T23:23:08;100874.38;;;0.54;54.97
46714;BME280;32445;51.376;10.874;2024-01-11T23:28:08;100873.56;;;0.55;55.11
46714;BME280;32445;51.376;10.874;2024-01-11T23:33:09;100874.47;;;0.57;54.88
46714;BME280;32445;51.376;10.874;2024-01-11T23:38:10;100870.13;;;0.54;54.98
46714;BME280;32445;51.376;10.874;2024-01-11T23:43:10;100866.91;;;0.60;55.25
46714;BME280;32445;51.376;10.874;2024-01-11T23:48:10;100858.44;;;0.61;55.13
46714;BME280;32445;51.376;10.874;2024-01-11T23:53:11;100852.59;;;0.63;54.94
46714;BME280;32445;51.376;10.874;2024-01-11T23:58:11;100857.75;;;0.65;54.97
